Latest Coastal Weather Observations for Wynyard

IDT60701

Issued at 3:35 am EDT Saturday 22 November 2014 (issued every 10 minutes, with the page automatically refreshed every 10 minutes)

About coastal observations | Map of coastal stations | Coastal observations for TAS | Marine services | Other Formats
Station Details ID: 091107 Name: WYNYARD AIRPORT Lat: -41.00 Lon: 145.73 Height: 12.0 m
Data from the previous 72 hours. | See also: Recent months at Wynyard
Date/Time
EDT
Temp

°C
Wind Pressure Rain
since 9am
mm
Weather Cloud Vis
km
Sea
Height
m
Swell
Dir
 
Speed
knots
Gust
knots
hPa Trend Height
m
Period
s
Dir
22/03:30am 5.5 WNW 5 7 1009.7 - 0.0 - - 10 - - - -
22/03:00am 5.4 W 7 8 1009.9 - 0.0 - - 10 - - - -
22/02:30am 5.3 W 5 6 1009.9 - 0.0 - - 10 - - - -
22/02:00am 4.8 WSW 5 5 1010.1 - 0.0 - - 10 - - - -
22/01:30am 4.6 SW 4 6 1010.6 - 0.0 - - 10 - - - -
22/01:00am 5.6 S 3 4 1011.3 - 0.0 - - 10 - - - -
22/12:30am 5.6 S 4 6 1011.5 - 0.0 - - 10 - - - -
22/12:00am 6.2 S 3 5 1011.8 - 0.0 - - 10 - - - -
 
Date/Time
EDT
Temp

°C
Wind Pressure Rain
since 9am
mm
Weather Cloud Vis
km
Sea
Height
m
Swell
Dir
 
Speed
knots
Gust
knots
hPa Trend Height
m
Period
s
Dir
21/11:30pm 7.2 WSW 5 6 1012.1 - 0.0 - - 10 - - - -
21/11:00pm 10.3 WNW 6 8 1012.4 - 0.0 - - 10 - - - -
21/10:30pm 8.0 SW 5 7 1012.1 - 0.0 - - 10 - - - -
21/10:00pm 10.3 W 6 6 1012.2 - 0.0 - - 10 - - - -
21/09:30pm 11.1 WNW 8 10 1011.8 - 0.0 - - 10 - - - -
21/09:00pm 12.5 WNW 9 11 1011.4 - 0.0 - - 10 - - - -
21/08:30pm 12.7 W 9 11 1010.8 - 0.0 - - 10 - - - -
21/08:00pm 14.4 W 9 11 1010.4 - 0.0 - - 10 - - - -
21/07:30pm 15.8 WSW 10 14 1009.8 - 0.0 - - 10 - - - -
21/07:00pm 16.9 W 11 18 1009.3 - 0.0 - - 10 - - - -
21/06:30pm 17.4 WSW 12 19 1008.7 - 0.0 - - 10 - - - -
21/06:00pm 17.8 WSW 14 20 1008.3 - 0.0 - - 10 - - - -
21/05:30pm 18.3 SW 14 19 1008.1 - 0.0 - - 10 - - - -
21/05:00pm 18.9 W 15 21 1007.9 - 0.0 - - 10 - - - -
21/04:30pm 18.9 W 16 23 1007.7 - 0.0 - - 10 - - - -
21/04:00pm 18.9 WSW 13 19 1007.7 - 0.0 - - 10 - - - -
21/03:30pm 19.3 WSW 14 22 1007.6 - 0.0 - - 10 - - - -
21/03:00pm 18.9 W 16 24 1007.6 - 0.0 - Mostly clear 10 - - - -
21/02:30pm 18.5 SW 13 19 1007.6 - 0.0 - Partly cloudy 10 - - - -
21/02:00pm 16.9 SW 13 17 1007.7 - 0.0 - Partly cloudy 10 - - - -
21/01:30pm 17.1 SW 13 19 1007.6 - 0.0 - Partly cloudy 10 - - - -
21/01:08pm 17.5 WSW 16 26 1007.3 - 0.0 - Partly cloudy 10 - - - -
21/01:00pm 17.5 WSW 19 26 1007.4 - 0.0 - Partly cloudy 10 - - - -
21/12:30pm 17.4 SW 14 22 1007.3 - 0.0 - Partly cloudy 10 - - - -
21/12:00pm 17.1 WSW 17 24 1007.1 - 0.0 - Mostly cloudy 10 - - - -
21/11:30am 16.0 WSW 13 17 1006.8 - 0.0 - Partly cloudy 10 - - - -
21/11:00am 14.9 SW 18 22 1006.9 - 0.0 - Partly cloudy 10 - - - -
21/10:30am 14.6 WSW 14 20 1006.6 - 0.0 - Partly cloudy 10 - - - -
21/10:00am 13.4 WSW 11 16 1006.4 - 0.0 - Partly cloudy 10 - - - -
21/09:30am 13.7 WSW 13 18 1006.4 - 0.0 - Partly cloudy 10 - - - -
21/09:00am 13.7 SW 13 18 1005.7 - 7.4 - Cloudy 10 - - - -
21/08:30am 13.7 WSW 13 18 1005.3 - 7.4 - Partly cloudy 10 - - - -
21/08:00am 14.1 WSW 12 16 1004.5 - 7.4 - Partly cloudy 10 - - - -
21/07:30am 14.5 W 12 15 1003.9 - 7.4 - Partly cloudy 10 - - - -
21/07:00am 13.8 W 11 15 1003.3 - 7.4 - - 10 - - - -
21/06:30am 13.1 WNW 9 11 1003.1 - 7.4 - - 10 - - - -
21/06:00am 12.6 W 8 10 1002.5 - 7.4 - - 10 - - - -
21/05:30am 13.0 W 8 11 1002.3 - 7.4 - Partly cloudy 10 - - - -
21/05:00am 13.2 WNW 6 8 1001.9 - 7.4 - Partly cloudy 10 - - - -
21/04:30am 13.0 WSW 1 5 1001.6 - 7.4 - Partly cloudy 10 - - - -
21/04:00am 12.6 WSW 3 5 1001.6 - 7.4 - Partly cloudy 9 - - - -
21/03:30am 12.9 W 7 8 1001.2 - 7.4 - Partly cloudy 9 - - - -
21/03:00am 13.6 WNW 7 8 1001.2 - 7.4 - Cloudy 10 - - - -
21/02:30am 13.8 WNW 8 10 1001.4 - 7.4 - Partly cloudy 10 - - - -
21/02:00am 13.7 NW 6 7 1001.5 - 7.4 - Partly cloudy 10 - - - -
21/01:30am 13.6 W 8 9 1001.9 - 7.4 - Partly cloudy 10 - - - -
21/01:00am 13.9 W 7 8 1002.1 - 7.4 - Partly cloudy 10 - - - -
21/12:30am 15.0 NW 7 10 1002.2 - 7.4 - Partly cloudy 10 - - - -
21/12:00am 15.2 NW 6 8 1002.4 - 7.4 - Cloudy 10 - - - -
 
Date/Time
EDT
Temp

°C
Wind Pressure Rain
since 9am
mm
Weather Cloud Vis
km
Sea
Height
m
Swell
Dir
 
Speed
knots
Gust
knots
hPa Trend Height
m
Period
s
Dir
20/11:47pm 15.3 NW 7 9 1002.4 - 7.4 - Partly cloudy 10 - - - -
20/11:32pm 15.3 NW 7 9 1002.3 - 7.4 - Partly cloudy 10 - - - -
20/11:30pm 15.3 NW 7 9 1002.3 - 7.4 - Partly cloudy 10 - - - -
20/11:10pm 15.3 NW 7 8 1002.3 - 7.4 - Partly cloudy 10 - - - -
20/11:00pm 15.2 NW 6 8 1002.3 - 7.4 - Partly cloudy 10 - - - -
20/10:30pm 15.2 NW 8 11 1002.8 - 7.4 - Partly cloudy 10 - - - -
20/10:00pm 15.3 NW 4 6 1002.8 - 7.4 - Partly cloudy 10 - - - -
20/09:46pm 15.3 NW 5 6 1003.0 - 7.4 - Partly cloudy 10 - - - -
20/09:40pm 15.2 NW 5 6 1003.2 - 7.4 - Partly cloudy 10 - - - -
20/09:30pm 15.2 NW 4 5 1003.1 - 7.4 - Partly cloudy 10 - - - -
20/09:09pm 15.2 NW 6 11 1003.1 - 7.4 - Partly cloudy 7 - - - -
20/09:00pm 15.2 NW 6 10 1003.0 - 7.2 Recent precip. Cloudy 6 - - - -
20/08:41pm 14.9 N 3 4 1002.9 - 7.0 - Cloudy 5 - - - -
20/08:37pm 14.9 N 3 4 1002.8 - 7.0 - Cloudy 9 - - - -
20/08:30pm 14.8 N 3 4 1002.8 - 6.8 - Partly cloudy 6 - - - -
20/08:00pm 15.0 NE 4 5 1002.6 - 4.8 - Partly cloudy 2 - - - -
20/07:48pm 15.1 NNE 5 7 1002.8 - 3.2 - Cloudy 5 - - - -
20/07:30pm 15.2 NNE 4 5 1002.9 - 3.0 - Partly cloudy 10 - - - -
20/07:26pm 15.1 N 4 5 1002.9 - 3.0 - Partly cloudy 10 - - - -
20/07:08pm 15.2 NW 3 5 1003.1 - 3.0 - Partly cloudy 10 - - - -
20/07:00pm 15.1 NNW 4 5 1003.0 - 3.0 - Partly cloudy 10 - - - -
20/06:30pm 15.0 W 8 12 1003.3 - 3.0 - Cloudy 10 - - - -
20/06:00pm 15.0 W 8 11 1003.2 - 2.6 Recent precip. Cloudy 10 - - - -
20/05:41pm 15.0 NW 6 10 1002.7 - 2.6 - Partly cloudy 8 - - - -
20/05:30pm 15.1 NW 7 11 1003.1 - 2.4 - Partly cloudy 7 - - - -
20/05:00pm 15.2 NNW 8 16 1003.1 - 1.8 - Partly cloudy 9 - - - -
20/04:30pm 15.1 NNE 4 6 1003.9 - 1.0 - Partly cloudy 10 - - - -
20/04:00pm 16.1 NNE 2 5 1004.0 - 1.0 - Partly cloudy 10 - - - -
20/03:30pm 16.1 ENE 2 5 1003.8 - 1.0 - Partly cloudy 10 - - - -
20/03:00pm 15.8 ENE 4 6 1004.2 - 1.0 - Mostly cloudy 10 - - - -
20/02:30pm 16.0 E 7 10 1003.9 - 1.0 - Partly cloudy 10 - - - -
20/02:00pm 16.7 E 8 11 1003.6 - 1.0 - Partly cloudy 10 - - - -
20/01:30pm 15.4 E 8 12 1003.7 - 1.0 - Partly cloudy 10 - - - -
20/01:00pm 15.2 E 8 13 1004.0 - 1.0 - Partly cloudy 10 - - - -
20/12:30pm 15.0 E 6 9 1004.6 - 0.6 - Partly cloudy 10 - - - -
20/12:00pm 15.0 ENE 7 11 1005.1 - 0.4 Rain Cloudy 10 - - - -
20/11:30am 14.9 E 6 7 1004.9 - 0.2 - Partly cloudy 10 - - - -
20/11:00am 14.5 E 6 8 1005.4 - 0.2 - Partly cloudy 10 - - - -
20/10:30am 14.4 E 6 9 1006.4 - 0.2 - Partly cloudy 10 - - - -
20/10:00am 14.5 NE 4 6 1007.6 - 0.2 - Partly cloudy 10 - - - -
20/09:30am 14.0 E 6 8 1006.8 - 0.0 - Partly cloudy 10 - - - -
20/09:00am 14.4 NE 4 6 1007.1 - 0.0 - Cloudy 10 - - - -
20/08:30am 14.9 NE 5 6 1007.0 - 0.0 - Cloudy 10 - - - -
20/08:00am 14.2 SSE 2 4 1006.7 - 0.0 - Partly cloudy 10 - - - -
20/07:30am 13.8 SW 2 4 1007.4 - 0.0 - Partly cloudy 10 - - - -
20/07:00am 13.0 CALM 0 3 1007.2 - 0.0 - Partly cloudy 10 - - - -
20/06:30am 12.5 S 3 4 1007.4 - 0.0 - Cloudy 10 - - - -
20/06:00am 12.2 CALM 0 0 1007.5 - 0.0 - Cloudy 10 - - - -
20/05:30am 12.3 S 3 4 1007.6 - 0.0 - Cloudy 10 - - - -
20/05:00am 12.2 CALM 0 0 1007.7 - 0.0 - Cloudy 10 - - - -
20/04:30am 12.1 SSW 1 3 1007.9 - 0.0 - Cloudy 10 - - - -
20/04:00am 12.3 SSE 3 4 1008.2 - 0.0 - Cloudy 10 - - - -
20/03:33am 12.3 S 4 5 1008.7 - 0.0 - Partly cloudy 10 - - - -
20/03:30am 12.3 S 4 5 1008.7 - 0.0 - Partly cloudy 10 - - - -
20/03:00am 12.3 S 5 6 1009.2 - 0.0 - Mostly cloudy 10 - - - -
20/02:30am 12.3 S 5 6 1008.8 - 0.0 - Cloudy 10 - - - -
20/02:00am 12.4 SSE 5 5 1009.0 - 0.0 - Cloudy 10 - - - -
20/01:38am 12.5 SSE 4 5 1009.5 - 0.0 - Partly cloudy 10 - - - -
20/01:30am 12.3 SE 4 5 1009.7 - 0.0 - Partly cloudy 10 - - - -
20/01:20am 12.3 SSE 5 6 1009.5 - 0.0 - Partly cloudy 10 - - - -
20/01:00am 12.5 SSE 3 4 1010.2 - 0.0 - Partly cloudy 10 - - - -
20/12:57am 12.5 SSE 3 4 1010.2 - 0.0 - Partly cloudy 10 - - - -
20/12:48am 12.4 SSE 4 5 1010.2 - 0.0 - Partly cloudy 10 - - - -
20/12:30am 12.4 S 3 4 1010.5 - 0.0 - Partly cloudy 10 - - - -
20/12:00am 12.2 S 4 5 1010.8 - 0.0 - Cloudy 10 - - - -
 
Date/Time
EDT
Temp

°C
Wind Pressure Rain
since 9am
mm
Weather Cloud Vis
km
Sea
Height
m
Swell
Dir
 
Speed
knots
Gust
knots
hPa Trend Height
m
Period
s
Dir
19/11:54pm 12.1 S 3 4 1011.0 - 0.0 - Partly cloudy 10 - - - -
19/11:30pm 11.9 S 3 4 1011.3 - 0.0 - Partly cloudy 10 - - - -
19/11:00pm 11.6 S 3 4 1011.8 - 0.0 - - 10 - - - -
19/10:30pm 12.1 SW 3 4 1011.7 - 0.0 - - 10 - - - -
19/10:00pm 11.8 WSW 5 6 1011.9 - 0.0 - - 10 - - - -
19/09:30pm 12.5 SW 3 5 1011.8 - 0.0 - - 10 - - - -
19/09:00pm 13.2 W 6 9 1011.8 - 0.0 - Cloudy 10 - - - -
19/08:30pm 13.6 NW 7 9 1011.9 - 0.0 - - 10 - - - -
19/08:00pm 13.8 NW 8 11 1012.1 - 0.0 - - 10 - - - -
19/07:30pm 14.2 NW 12 17 1012.3 - 0.0 - - 10 - - - -
19/07:00pm 14.6 NW 12 17 1012.8 - 0.0 - Partly cloudy 10 - - - -
19/06:30pm 15.5 NW 13 19 1012.8 - 0.0 - - 10 - - - -
19/06:00pm 15.6 NNW 12 16 1012.5 - 0.0 - - 10 - - - -
19/05:30pm 16.4 NNW 12 18 1012.8 - 0.0 - - 10 - - - -
19/05:00pm 16.3 NNW 15 21 1013.3 - 0.0 - - 10 - - - -
19/04:30pm 15.7 NNW 16 23 1013.4 - 0.0 - - 10 - - - -
19/04:00pm 16.4 NNW 18 23 1013.8 - 0.0 - - 10 - - - -
19/03:30pm 16.5 NNW 17 24 1014.4 - 0.0 - - 10 - - - -
19/03:00pm 16.5 NNW 17 23 1014.4 - 0.0 - Mostly clear 10 - - - -
19/02:30pm 17.0 NNW 15 21 1015.0 - 0.0 - - 10 - - - -
19/02:00pm 16.3 NNW 16 20 1015.0 - 0.0 - Partly cloudy 10 - - - -
19/01:30pm 15.7 NNW 16 22 1015.0 - 0.0 - Partly cloudy 10 - - - -
19/01:00pm 16.1 NNW 16 22 1016.1 - 0.0 - Partly cloudy 10 - - - -
19/12:30pm 15.5 NNW 16 22 1016.4 - 0.0 - - 10 - - - -
19/12:00pm 16.3 NNW 15 20 1016.4 - 0.0 - Partly cloudy 10 - - - -
19/11:30am 16.0 NNW 15 22 1016.6 - 0.0 - Partly cloudy 10 - - - -
19/11:00am 15.7 NNW 14 17 1016.9 - 0.0 - Partly cloudy 10 - - - -
19/10:30am 14.9 NNW 6 8 1016.9 - 0.0 - Partly cloudy 10 - - - -
19/10:00am 15.6 WNW 11 15 1017.6 - 0.0 - Partly cloudy 10 - - - -
19/09:30am 14.3 NW 11 15 1018.2 - 0.0 - Cloudy 10 - - - -
19/09:00am 13.7 SW 10 12 1018.3 - 0.0 - Mostly cloudy 10 - - - -
19/08:30am 13.3 W 9 15 1018.4 - 0.0 - Partly cloudy 10 - - - -
19/08:00am 12.5 W 11 15 1018.5 - 0.0 - Partly cloudy 10 - - - -
19/07:30am 11.5 W 7 9 1018.2 - 0.0 - - 10 - - - -
19/07:00am 8.9 SW 4 5 1018.2 - 0.0 - - 10 - - - -
19/06:30am 6.6 W 4 4 1018.2 - 0.0 - - 10 - - - -
19/06:00am 6.1 W 3 4 1018.1 - 0.0 - - 10 - - - -
19/05:30am 6.1 WSW 3 5 1018.1 - 0.0 - - 10 - - - -
19/05:00am 6.5 W 5 6 1018.1 - 0.0 - - 10 - - - -
19/04:30am 6.0 W 5 6 1018.1 - 0.0 - - 10 - - - -
19/04:00am 9.0 NNW 5 7 1018.4 - 0.0 - Partly cloudy 10 - - - -

Other Formats:

Comma delimited format used in spreadsheet applications
http://www.bom.gov.au/fwo/IDT60701/IDT60701.95957.axf

JavaScript Object Notation format (JSON) in row-major order
http://www.bom.gov.au/fwo/IDT60701/IDT60701.95957.json